MSC England — A8VG3 — position and weather

sailwx.info

Track history (hours):
 
Tides and Currents Weather Stations Pressure Air Temp Water Temp Dewpoint Dewpoint Depression Visibility Wind Speed Wind Dir Waves Ship Positions

MSC England

Last reported at 2018-Jul-18 09:57 UTC. Time now 2018-Jul-18 10:22 UTC.
Position N 37°57' E 023°36'.

Length 258 m; draft 9.9 m.

Type: Ship (hazmat cat A). MMSI: 636091996.

Date/timePositionNaut miles runAvg speedWind from/ knotsBaromVisibWave heightAir tempDewpointWater temp
2018-Jul-18 09:57N 37°57' E 023°36'0 0.0
2018-Jul-18 09:30N 37°57' E 023°36'0 0.0
2018-Jul-18 09:00N 37°57' E 023°36'0 0.0
2018-Jul-18 08:30N 37°57' E 023°36'0 0.0
2018-Jul-18 08:00N 37°57' E 023°36'0 0.0
2018-Jul-18 07:30N 37°57' E 023°36'0 0.0
2018-Jul-18 07:00N 37°57' E 023°36'0 0.0
2018-Jul-18 06:30N 37°57' E 023°36'0 0.0
2018-Jul-18 06:00N 37°57' E 023°36'0 0.0
2018-Jul-18 05:30N 37°57' E 023°36'0 0.0
2018-Jul-18 05:00N 37°57' E 023°36'0 0.0
2018-Jul-18 04:30N 37°57' E 023°36'0 0.0
2018-Jul-18 04:00N 37°57' E 023°36'0 0.0
2018-Jul-18 03:30N 37°57' E 023°36'0 0.0
2018-Jul-18 03:00N 37°57' E 023°36'0 0.0
2018-Jul-18 02:30N 37°57' E 023°36'0 0.0
2018-Jul-18 02:00N 37°57' E 023°36'0 0.0
2018-Jul-18 01:30N 37°57' E 023°36'0 0.0
2018-Jul-18 01:00N 37°57' E 023°36'0 0.0
2018-Jul-18 00:27N 37°57' E 023°36'0 0.0
2018-Jul-18 00:00N 37°57' E 023°36'0 0.0
2018-Jul-17 23:30N 37°57' E 023°36'0 0.0
2018-Jul-17 23:00N 37°57' E 023°36'0 0.0
2018-Jul-17 22:30N 37°57' E 023°36'0 0.0
2018-Jul-17 22:00N 37°57' E 023°36'0 0.0
2018-Jul-17 21:30N 37°57' E 023°36'1 2.5
2018-Jul-17 21:00N 37°56' E 023°36'2 3.2
2018-Jul-17 20:30N 37°55' E 023°36'1 2.9
2018-Jul-17 20:00N 37°53' E 023°36'1 2.2
2018-Jul-17 19:30N 37°52' E 023°36'0 0.6
2018-Jul-17 19:00N 37°52' E 023°36'0 0.6
2018-Jul-17 18:30N 37°53' E 023°36'0 0.2
2018-Jul-17 18:00N 37°53' E 023°36'1 2.5
2018-Jul-17 17:30N 37°52' E 023°37'5 9.3
2018-Jul-17 17:00N 37°48' E 023°40'5 9.6
2018-Jul-17 16:30N 37°44' E 023°43'5 9.7
2018-Jul-17 16:00N 37°40' E 023°47'5 9.7
2018-Jul-17 15:30N 37°37' E 023°52'0 0.6
2018-Jul-17 14:59N 37°36' E 023°52'0 0.6
2018-Jul-17 14:30N 37°36' E 023°52'0 0.6
2018-Jul-17 14:00N 37°36' E 023°52'0 0.8
2018-Jul-17 13:30N 37°35' E 023°52'0 0.7
2018-Jul-17 13:00N 37°35' E 023°52'0 0.7
2018-Jul-17 12:30N 37°34' E 023°52'0 0.9
2018-Jul-17 12:00N 37°34' E 023°52'0 1.0
2018-Jul-17 11:30N 37°34' E 023°52'1 1.4
2018-Jul-17 10:56N 37°33' E 023°51'3 5.9
2018-Jul-17 10:25N 37°30' E 023°49'614.8
2018-Jul-17 10:00N 37°25' E 023°46'714.0
2018-Jul-17 09:30N 37°18' E 023°44'714.4
2018-Jul-17 09:00N 37°11' E 023°43'714.4
2018-Jul-17 08:30N 37°04' E 023°41'714.4
2018-Jul-17 08:00N 36°57' E 023°39'714.5
2018-Jul-17 07:30N 36°50' E 023°35'714.4
2018-Jul-17 07:00N 36°44' E 023°31'  
2018-Jul-14 19:10N 37°17' E 005°56'214.3
2018-Jul-14 19:00N 37°16' E 005°53'  
2018-Jul-09 07:06N 34°57' W 006°51'8713.5
2018-Jul-09 00:39N 35°58' W 005°34'211.2
2018-Jul-09 00:30N 35°58' W 005°32'611.9
2018-Jul-09 00:00N 35°60' W 005°25'611.6
2018-Jul-08 23:30N 36°01' W 005°18'611.6
2018-Jul-08 23:00N 36°02' W 005°11'  
Track history (hours):
 
Tides and Currents Weather Stations Pressure Air Temp Water Temp Dewpoint Dewpoint Depression Visibility Wind Speed Wind Dir Waves Ship Positions

MSC England

Last reported at 2018-Jul-18 09:57 UTC. Time now 2018-Jul-18 10:22 UTC.
Position N 37°57' E 023°36'.

Length 258 m; draft 9.9 m.

Type: Ship (hazmat cat A). MMSI: 636091996.

Date/timePositionNaut miles runAvg speedWind from/ knotsBaromVisibWave heightAir tempDewpointWater temp
2018-Jul-18 09:57N 37°57' E 023°36'0 0.0
2018-Jul-18 09:30N 37°57' E 023°36'0 0.0
2018-Jul-18 09:00N 37°57' E 023°36'0 0.0
2018-Jul-18 08:30N 37°57' E 023°36'0 0.0
2018-Jul-18 08:00N 37°57' E 023°36'0 0.0
2018-Jul-18 07:30N 37°57' E 023°36'0 0.0
2018-Jul-18 07:00N 37°57' E 023°36'0 0.0
2018-Jul-18 06:30N 37°57' E 023°36'0 0.0
2018-Jul-18 06:00N 37°57' E 023°36'0 0.0
2018-Jul-18 05:30N 37°57' E 023°36'0 0.0
2018-Jul-18 05:00N 37°57' E 023°36'0 0.0
2018-Jul-18 04:30N 37°57' E 023°36'0 0.0
2018-Jul-18 04:00N 37°57' E 023°36'0 0.0
2018-Jul-18 03:30N 37°57' E 023°36'0 0.0
2018-Jul-18 03:00N 37°57' E 023°36'0 0.0
2018-Jul-18 02:30N 37°57' E 023°36'0 0.0
2018-Jul-18 02:00N 37°57' E 023°36'0 0.0
2018-Jul-18 01:30N 37°57' E 023°36'0 0.0
2018-Jul-18 01:00N 37°57' E 023°36'0 0.0
2018-Jul-18 00:27N 37°57' E 023°36'0 0.0
2018-Jul-18 00:00N 37°57' E 023°36'0 0.0
2018-Jul-17 23:30N 37°57' E 023°36'0 0.0
2018-Jul-17 23:00N 37°57' E 023°36'0 0.0
2018-Jul-17 22:30N 37°57' E 023°36'0 0.0
2018-Jul-17 22:00N 37°57' E 023°36'0 0.0
2018-Jul-17 21:30N 37°57' E 023°36'1 2.5
2018-Jul-17 21:00N 37°56' E 023°36'2 3.2
2018-Jul-17 20:30N 37°55' E 023°36'1 2.9
2018-Jul-17 20:00N 37°53' E 023°36'1 2.2
2018-Jul-17 19:30N 37°52' E 023°36'0 0.6
2018-Jul-17 19:00N 37°52' E 023°36'0 0.6
2018-Jul-17 18:30N 37°53' E 023°36'0 0.2
2018-Jul-17 18:00N 37°53' E 023°36'1 2.5
2018-Jul-17 17:30N 37°52' E 023°37'5 9.3
2018-Jul-17 17:00N 37°48' E 023°40'5 9.6
2018-Jul-17 16:30N 37°44' E 023°43'5 9.7
2018-Jul-17 16:00N 37°40' E 023°47'5 9.7
2018-Jul-17 15:30N 37°37' E 023°52'0 0.6
2018-Jul-17 14:59N 37°36' E 023°52'0 0.6
2018-Jul-17 14:30N 37°36' E 023°52'0 0.6
2018-Jul-17 14:00N 37°36' E 023°52'0 0.8
2018-Jul-17 13:30N 37°35' E 023°52'0 0.7
2018-Jul-17 13:00N 37°35' E 023°52'0 0.7
2018-Jul-17 12:30N 37°34' E 023°52'0 0.9
2018-Jul-17 12:00N 37°34' E 023°52'0 1.0
2018-Jul-17 11:30N 37°34' E 023°52'1 1.4
2018-Jul-17 10:56N 37°33' E 023°51'3 5.9
2018-Jul-17 10:25N 37°30' E 023°49'614.8
2018-Jul-17 10:00N 37°25' E 023°46'714.0
2018-Jul-17 09:30N 37°18' E 023°44'714.4
2018-Jul-17 09:00N 37°11' E 023°43'714.4
2018-Jul-17 08:30N 37°04' E 023°41'714.4
2018-Jul-17 08:00N 36°57' E 023°39'714.5
2018-Jul-17 07:30N 36°50' E 023°35'714.4
2018-Jul-17 07:00N 36°44' E 023°31'  
2018-Jul-14 19:10N 37°17' E 005°56'214.3
2018-Jul-14 19:00N 37°16' E 005°53'  
2018-Jul-09 07:06N 34°57' W 006°51'8713.5
2018-Jul-09 00:39N 35°58' W 005°34'211.2
2018-Jul-09 00:30N 35°58' W 005°32'611.9
2018-Jul-09 00:00N 35°60' W 005°25'611.6
2018-Jul-08 23:30N 36°01' W 005°18'611.6
2018-Jul-08 23:00N 36°02' W 005°11'  

Dump ship's entire track history